sensor_id;sensor_type;location;lat;lon;timestamp;P1;durP1;ratioP1;P2;durP2;ratioP2
79139;SDS011;68546;59.142;37.948;2023-05-19T00:01:11;6.13;;;2.00;;
79139;SDS011;68546;59.142;37.948;2023-05-19T00:03:48;5.63;;;2.03;;
79139;SDS011;68546;59.142;37.948;2023-05-19T00:06:23;5.80;;;1.83;;
79139;SDS011;68546;59.142;37.948;2023-05-19T00:08:55;8.82;;;1.83;;
79139;SDS011;68546;59.142;37.948;2023-05-19T00:11:26;7.20;;;1.45;;
79139;SDS011;68546;59.142;37.948;2023-05-19T00:13:54;5.25;;;2.00;;
79139;SDS011;68546;59.142;37.948;2023-05-19T00:16:22;4.93;;;1.47;;
79139;SDS011;68546;59.142;37.948;2023-05-19T00:18:49;7.03;;;1.98;;
79139;SDS011;68546;59.142;37.948;2023-05-19T00:21:16;4.18;;;1.23;;
79139;SDS011;68546;59.142;37.948;2023-05-19T00:23:42;4.25;;;1.40;;
79139;SDS011;68546;59.142;37.948;2023-05-19T00:26:09;4.80;;;1.55;;
79139;SDS011;68546;59.142;37.948;2023-05-19T00:28:37;5.03;;;1.50;;
79139;SDS011;68546;59.142;37.948;2023-05-19T00:31:04;5.30;;;1.77;;
79139;SDS011;68546;59.142;37.948;2023-05-19T00:33:31;4.55;;;1.63;;
79139;SDS011;68546;59.142;37.948;2023-05-19T00:36:02;4.53;;;1.42;;
79139;SDS011;68546;59.142;37.948;2023-05-19T00:38:32;3.88;;;1.10;;
79139;SDS011;68546;59.142;37.948;2023-05-19T00:41:00;7.77;;;1.60;;
79139;SDS011;68546;59.142;37.948;2023-05-19T00:43:27;4.93;;;1.40;;
79139;SDS011;68546;59.142;37.948;2023-05-19T00:45:55;5.95;;;1.50;;
79139;SDS011;68546;59.142;37.948;2023-05-19T00:48:23;4.97;;;1.50;;
79139;SDS011;68546;59.142;37.948;2023-05-19T00:50:50;3.65;;;1.15;;
79139;SDS011;68546;59.142;37.948;2023-05-19T00:53:19;4.73;;;1.40;;
79139;SDS011;68546;59.142;37.948;2023-05-19T00:55:47;5.03;;;1.52;;
79139;SDS011;68546;59.142;37.948;2023-05-19T00:58:14;4.68;;;1.30;;
79139;SDS011;68546;59.142;37.948;2023-05-19T01:00:41;4.25;;;1.48;;
79139;SDS011;68546;59.142;37.948;2023-05-19T01:03:08;5.43;;;1.40;;
79139;SDS011;68546;59.142;37.948;2023-05-19T01:05:40;4.10;;;1.20;;
79139;SDS011;68546;59.142;37.948;2023-05-19T01:08:07;3.47;;;1.08;;
79139;SDS011;68546;59.142;37.948;2023-05-19T01:10:33;3.80;;;1.10;;
79139;SDS011;68546;59.142;37.948;2023-05-19T01:13:03;3.60;;;1.15;;
79139;SDS011;68546;59.142;37.948;2023-05-19T01:15:35;6.10;;;1.13;;
79139;SDS011;68546;59.142;37.948;2023-05-19T01:29:55;4.13;;;1.23;;
79139;SDS011;68546;59.142;37.948;2023-05-19T01:32:40;4.80;;;1.70;;
79139;SDS011;68546;59.142;37.948;2023-05-19T01:35:07;3.97;;;1.20;;
79139;SDS011;68546;59.142;37.948;2023-05-19T01:37:36;5.30;;;1.70;;
79139;SDS011;68546;59.142;37.948;2023-05-19T01:40:04;4.15;;;1.17;;
79139;SDS011;68546;59.142;37.948;2023-05-19T01:42:32;4.68;;;1.23;;
79139;SDS011;68546;59.142;37.948;2023-05-19T01:45:04;3.80;;;1.40;;
79139;SDS011;68546;59.142;37.948;2023-05-19T01:47:35;4.43;;;1.15;;
79139;SDS011;68546;59.142;37.948;2023-05-19T01:50:04;3.85;;;1.20;;
79139;SDS011;68546;59.142;37.948;2023-05-19T01:52:31;3.72;;;1.00;;
79139;SDS011;68546;59.142;37.948;2023-05-19T01:54:57;5.28;;;1.40;;
79139;SDS011;68546;59.142;37.948;2023-05-19T02:01:06;5.68;;;1.13;;
79139;SDS011;68546;59.142;37.948;2023-05-19T02:03:35;3.58;;;0.93;;
79139;SDS011;68546;59.142;37.948;2023-05-19T02:09:05;3.38;;;0.98;;
79139;SDS011;68546;59.142;37.948;2023-05-19T02:11:55;3.20;;;0.87;;
79139;SDS011;68546;59.142;37.948;2023-05-19T02:17:17;4.18;;;0.95;;
79139;SDS011;68546;59.142;37.948;2023-05-19T02:19:45;4.00;;;1.00;;
79139;SDS011;68546;59.142;37.948;2023-05-19T02:22:13;4.20;;;0.88;;
79139;SDS011;68546;59.142;37.948;2023-05-19T02:24:39;5.50;;;1.10;;
79139;SDS011;68546;59.142;37.948;2023-05-19T02:27:08;4.72;;;0.95;;
79139;SDS011;68546;59.142;37.948;2023-05-19T02:29:35;5.57;;;1.08;;
79139;SDS011;68546;59.142;37.948;2023-05-19T02:32:01;3.60;;;0.90;;
79139;SDS011;68546;59.142;37.948;2023-05-19T02:34:27;3.20;;;0.77;;
79139;SDS011;68546;59.142;37.948;2023-05-19T02:36:54;4.13;;;1.13;;
79139;SDS011;68546;59.142;37.948;2023-05-19T02:39:21;4.60;;;0.90;;
79139;SDS011;68546;59.142;37.948;2023-05-19T02:41:48;3.88;;;1.00;;
79139;SDS011;68546;59.142;37.948;2023-05-19T02:44:14;7.15;;;1.20;;
79139;SDS011;68546;59.142;37.948;2023-05-19T02:46:40;4.20;;;1.02;;
79139;SDS011;68546;59.142;37.948;2023-05-19T02:49:06;3.23;;;0.70;;
79139;SDS011;68546;59.142;37.948;2023-05-19T02:51:33;3.85;;;0.90;;
79139;SDS011;68546;59.142;37.948;2023-05-19T02:53:59;4.70;;;0.95;;
79139;SDS011;68546;59.142;37.948;2023-05-19T02:56:25;3.72;;;0.90;;
79139;SDS011;68546;59.142;37.948;2023-05-19T02:58:52;4.07;;;1.02;;
79139;SDS011;68546;59.142;37.948;2023-05-19T03:01:19;3.10;;;0.70;;
79139;SDS011;68546;59.142;37.948;2023-05-19T03:03:47;4.13;;;0.73;;
79139;SDS011;68546;59.142;37.948;2023-05-19T03:06:14;3.53;;;0.90;;
79139;SDS011;68546;59.142;37.948;2023-05-19T03:08:42;4.15;;;1.08;;
79139;SDS011;68546;59.142;37.948;2023-05-19T03:11:09;4.68;;;1.00;;
79139;SDS011;68546;59.142;37.948;2023-05-19T03:13:35;3.00;;;0.63;;
79139;SDS011;68546;59.142;37.948;2023-05-19T03:16:02;3.60;;;0.80;;
79139;SDS011;68546;59.142;37.948;2023-05-19T03:18:28;3.67;;;0.57;;
79139;SDS011;68546;59.142;37.948;2023-05-19T03:20:54;3.83;;;0.80;;
79139;SDS011;68546;59.142;37.948;2023-05-19T03:23:21;3.38;;;0.80;;
79139;SDS011;68546;59.142;37.948;2023-05-19T03:25:47;3.43;;;0.90;;
79139;SDS011;68546;59.142;37.948;2023-05-19T03:28:15;3.22;;;0.70;;
79139;SDS011;68546;59.142;37.948;2023-05-19T03:30:41;3.53;;;0.88;;
79139;SDS011;68546;59.142;37.948;2023-05-19T03:33:15;3.05;;;0.80;;
79139;SDS011;68546;59.142;37.948;2023-05-19T03:35:42;5.00;;;1.13;;
79139;SDS011;68546;59.142;37.948;2023-05-19T03:38:12;5.87;;;0.90;;
79139;SDS011;68546;59.142;37.948;2023-05-19T03:40:41;3.80;;;1.08;;
79139;SDS011;68546;59.142;37.948;2023-05-19T03:43:10;4.90;;;0.75;;
79139;SDS011;68546;59.142;37.948;2023-05-19T03:45:43;3.42;;;0.73;;
79139;SDS011;68546;59.142;37.948;2023-05-19T03:48:29;4.20;;;0.90;;
79139;SDS011;68546;59.142;37.948;2023-05-19T03:51:18;3.37;;;0.70;;
79139;SDS011;68546;59.142;37.948;2023-05-19T03:53:46;4.13;;;0.68;;
79139;SDS011;68546;59.142;37.948;2023-05-19T03:56:13;5.18;;;0.82;;
79139;SDS011;68546;59.142;37.948;2023-05-19T03:58:41;3.33;;;0.80;;
79139;SDS011;68546;59.142;37.948;2023-05-19T04:01:09;3.42;;;0.85;;
79139;SDS011;68546;59.142;37.948;2023-05-19T04:03:36;3.10;;;0.63;;
79139;SDS011;68546;59.142;37.948;2023-05-19T04:06:02;5.25;;;0.80;;
79139;SDS011;68546;59.142;37.948;2023-05-19T04:08:29;4.50;;;0.80;;
79139;SDS011;68546;59.142;37.948;2023-05-19T04:10:55;3.33;;;0.70;;
79139;SDS011;68546;59.142;37.948;2023-05-19T04:13:21;5.97;;;0.90;;
79139;SDS011;68546;59.142;37.948;2023-05-19T04:15:47;2.90;;;0.70;;
79139;SDS011;68546;59.142;37.948;2023-05-19T04:18:14;2.80;;;0.60;;
79139;SDS011;68546;59.142;37.948;2023-05-19T04:20:40;3.03;;;0.77;;
79139;SDS011;68546;59.142;37.948;2023-05-19T04:23:06;3.72;;;0.70;;
79139;SDS011;68546;59.142;37.948;2023-05-19T04:25:33;3.60;;;0.80;;
79139;SDS011;68546;59.142;37.948;2023-05-19T04:28:00;3.33;;;0.80;;
79139;SDS011;68546;59.142;37.948;2023-05-19T04:30:29;4.20;;;0.95;;
79139;SDS011;68546;59.142;37.948;2023-05-19T04:32:55;3.85;;;0.70;;
79139;SDS011;68546;59.142;37.948;2023-05-19T04:35:23;3.03;;;0.60;;
79139;SDS011;68546;59.142;37.948;2023-05-19T04:37:50;3.30;;;0.75;;
79139;SDS011;68546;59.142;37.948;2023-05-19T04:40:23;4.47;;;0.93;;
79139;SDS011;68546;59.142;37.948;2023-05-19T04:42:51;3.22;;;0.60;;
79139;SDS011;68546;59.142;37.948;2023-05-19T04:45:18;3.45;;;0.73;;
79139;SDS011;68546;59.142;37.948;2023-05-19T04:47:48;4.07;;;0.70;;
79139;SDS011;68546;59.142;37.948;2023-05-19T04:50:14;2.80;;;0.60;;
79139;SDS011;68546;59.142;37.948;2023-05-19T04:52:41;3.23;;;0.60;;
79139;SDS011;68546;59.142;37.948;2023-05-19T04:55:10;3.22;;;0.70;;
79139;SDS011;68546;59.142;37.948;2023-05-19T04:57:37;4.78;;;0.80;;
79139;SDS011;68546;59.142;37.948;2023-05-19T05:00:05;2.90;;;0.60;;
79139;SDS011;68546;59.142;37.948;2023-05-19T05:02:48;3.50;;;0.52;;
79139;SDS011;68546;59.142;37.948;2023-05-19T05:05:18;4.60;;;0.50;;
79139;SDS011;68546;59.142;37.948;2023-05-19T05:07:44;3.13;;;0.70;;
79139;SDS011;68546;59.142;37.948;2023-05-19T05:10:11;4.88;;;0.80;;
79139;SDS011;68546;59.142;37.948;2023-05-19T05:12:38;2.83;;;0.60;;
79139;SDS011;68546;59.142;37.948;2023-05-19T05:15:05;3.15;;;0.70;;
79139;SDS011;68546;59.142;37.948;2023-05-19T05:17:33;2.93;;;0.50;;
79139;SDS011;68546;59.142;37.948;2023-05-19T05:20:02;3.70;;;0.45;;
79139;SDS011;68546;59.142;37.948;2023-05-19T05:22:31;2.67;;;0.40;;
79139;SDS011;68546;59.142;37.948;2023-05-19T05:24:58;3.95;;;0.60;;
79139;SDS011;68546;59.142;37.948;2023-05-19T05:27:24;4.32;;;0.80;;
79139;SDS011;68546;59.142;37.948;2023-05-19T05:29:52;4.77;;;0.50;;
79139;SDS011;68546;59.142;37.948;2023-05-19T05:32:19;3.22;;;0.60;;
79139;SDS011;68546;59.142;37.948;2023-05-19T05:34:46;3.83;;;0.75;;
79139;SDS011;68546;59.142;37.948;2023-05-19T05:37:12;3.63;;;0.80;;
79139;SDS011;68546;59.142;37.948;2023-05-19T05:39:39;3.65;;;0.80;;
79139;SDS011;68546;59.142;37.948;2023-05-19T05:42:06;4.03;;;0.70;;
79139;SDS011;68546;59.142;37.948;2023-05-19T05:44:35;3.33;;;0.50;;
79139;SDS011;68546;59.142;37.948;2023-05-19T05:47:03;4.68;;;1.10;;
79139;SDS011;68546;59.142;37.948;2023-05-19T05:49:30;6.20;;;1.50;;
79139;SDS011;68546;59.142;37.948;2023-05-19T05:51:58;4.95;;;1.10;;
79139;SDS011;68546;59.142;37.948;2023-05-19T05:54:25;3.60;;;0.70;;
79139;SDS011;68546;59.142;37.948;2023-05-19T05:56:52;3.80;;;0.98;;
79139;SDS011;68546;59.142;37.948;2023-05-19T05:59:19;3.47;;;0.80;;
79139;SDS011;68546;59.142;37.948;2023-05-19T06:01:45;8.18;;;0.60;;
79139;SDS011;68546;59.142;37.948;2023-05-19T06:04:14;3.10;;;0.60;;
79139;SDS011;68546;59.142;37.948;2023-05-19T06:06:41;4.30;;;0.50;;
79139;SDS011;68546;59.142;37.948;2023-05-19T06:09:08;3.15;;;0.60;;
79139;SDS011;68546;59.142;37.948;2023-05-19T06:11:34;5.25;;;0.80;;
79139;SDS011;68546;59.142;37.948;2023-05-19T06:14:00;2.92;;;0.73;;
79139;SDS011;68546;59.142;37.948;2023-05-19T06:16:45;4.68;;;0.70;;
79139;SDS011;68546;59.142;37.948;2023-05-19T06:19:14;5.37;;;0.70;;
79139;SDS011;68546;59.142;37.948;2023-05-19T06:21:41;2.97;;;0.50;;
79139;SDS011;68546;59.142;37.948;2023-05-19T06:24:08;2.40;;;0.50;;
79139;SDS011;68546;59.142;37.948;2023-05-19T06:26:34;3.33;;;0.80;;
79139;SDS011;68546;59.142;37.948;2023-05-19T06:29:00;3.08;;;0.50;;
79139;SDS011;68546;59.142;37.948;2023-05-19T06:31:27;3.87;;;0.60;;
79139;SDS011;68546;59.142;37.948;2023-05-19T06:33:57;2.40;;;0.40;;
79139;SDS011;68546;59.142;37.948;2023-05-19T06:36:24;3.35;;;0.50;;
79139;SDS011;68546;59.142;37.948;2023-05-19T06:38:53;3.58;;;0.50;;
79139;SDS011;68546;59.142;37.948;2023-05-19T06:41:21;2.85;;;0.50;;
79139;SDS011;68546;59.142;37.948;2023-05-19T06:43:50;2.97;;;0.50;;
79139;SDS011;68546;59.142;37.948;2023-05-19T06:46:18;2.50;;;0.50;;
79139;SDS011;68546;59.142;37.948;2023-05-19T06:48:44;2.50;;;0.50;;
79139;SDS011;68546;59.142;37.948;2023-05-19T06:51:11;2.30;;;0.40;;
79139;SDS011;68546;59.142;37.948;2023-05-19T06:53:39;3.85;;;0.60;;
79139;SDS011;68546;59.142;37.948;2023-05-19T06:56:07;2.20;;;0.33;;
79139;SDS011;68546;59.142;37.948;2023-05-19T06:58:36;2.70;;;0.50;;
79139;SDS011;68546;59.142;37.948;2023-05-19T07:01:04;4.22;;;0.50;;
79139;SDS011;68546;59.142;37.948;2023-05-19T07:03:37;3.10;;;0.50;;
79139;SDS011;68546;59.142;37.948;2023-05-19T07:06:04;3.72;;;0.30;;
79139;SDS011;68546;59.142;37.948;2023-05-19T07:08:31;3.33;;;0.40;;
79139;SDS011;68546;59.142;37.948;2023-05-19T07:11:00;2.85;;;0.40;;
79139;SDS011;68546;59.142;37.948;2023-05-19T07:13:27;2.15;;;0.40;;
79139;SDS011;68546;59.142;37.948;2023-05-19T07:15:55;2.60;;;0.40;;
79139;SDS011;68546;59.142;37.948;2023-05-19T07:18:21;2.92;;;0.40;;
79139;SDS011;68546;59.142;37.948;2023-05-19T07:20:47;1.77;;;0.23;;
79139;SDS011;68546;59.142;37.948;2023-05-19T07:23:14;1.60;;;0.20;;
79139;SDS011;68546;59.142;37.948;2023-05-19T07:25:40;2.80;;;0.35;;
79139;SDS011;68546;59.142;37.948;2023-05-19T07:28:07;3.05;;;0.50;;
79139;SDS011;68546;59.142;37.948;2023-05-19T07:30:33;5.07;;;0.50;;
79139;SDS011;68546;59.142;37.948;2023-05-19T07:33:00;2.70;;;0.50;;
79139;SDS011;68546;59.142;37.948;2023-05-19T07:35:27;2.35;;;0.40;;
79139;SDS011;68546;59.142;37.948;2023-05-19T07:37:53;3.47;;;0.47;;
79139;SDS011;68546;59.142;37.948;2023-05-19T07:40:19;1.90;;;0.30;;
79139;SDS011;68546;59.142;37.948;2023-05-19T07:42:47;2.75;;;0.50;;
79139;SDS011;68546;59.142;37.948;2023-05-19T07:45:14;3.83;;;0.57;;
79139;SDS011;68546;59.142;37.948;2023-05-19T07:47:41;3.45;;;0.50;;
79139;SDS011;68546;59.142;37.948;2023-05-19T07:50:07;3.30;;;0.50;;
79139;SDS011;68546;59.142;37.948;2023-05-19T07:52:34;2.08;;;0.32;;
79139;SDS011;68546;59.142;37.948;2023-05-19T07:55:00;2.47;;;0.40;;
79139;SDS011;68546;59.142;37.948;2023-05-19T07:57:27;3.23;;;0.50;;
79139;SDS011;68546;59.142;37.948;2023-05-19T07:59:53;3.08;;;0.40;;
79139;SDS011;68546;59.142;37.948;2023-05-19T08:02:20;2.45;;;0.60;;
79139;SDS011;68546;59.142;37.948;2023-05-19T08:04:46;3.70;;;0.40;;
79139;SDS011;68546;59.142;37.948;2023-05-19T08:07:14;2.55;;;0.47;;
79139;SDS011;68546;59.142;37.948;2023-05-19T08:09:40;2.00;;;0.30;;
79139;SDS011;68546;59.142;37.948;2023-05-19T08:12:08;2.35;;;0.40;;
79139;SDS011;68546;59.142;37.948;2023-05-19T08:14:34;3.40;;;0.50;;
79139;SDS011;68546;59.142;37.948;2023-05-19T08:17:01;2.88;;;0.30;;
79139;SDS011;68546;59.142;37.948;2023-05-19T08:19:27;2.05;;;0.30;;
79139;SDS011;68546;59.142;37.948;2023-05-19T08:21:54;2.73;;;0.60;;
79139;SDS011;68546;59.142;37.948;2023-05-19T08:24:22;2.28;;;0.30;;
79139;SDS011;68546;59.142;37.948;2023-05-19T08:26:48;2.95;;;0.40;;
79139;SDS011;68546;59.142;37.948;2023-05-19T08:29:14;1.88;;;0.28;;
79139;SDS011;68546;59.142;37.948;2023-05-19T08:31:41;1.83;;;0.30;;
79139;SDS011;68546;59.142;37.948;2023-05-19T08:34:07;2.13;;;0.30;;
79139;SDS011;68546;59.142;37.948;2023-05-19T08:36:33;2.10;;;0.30;;
79139;SDS011;68546;59.142;37.948;2023-05-19T08:39:00;2.25;;;0.40;;
79139;SDS011;68546;59.142;37.948;2023-05-19T08:41:28;2.55;;;0.40;;
79139;SDS011;68546;59.142;37.948;2023-05-19T08:43:54;1.75;;;0.30;;
79139;SDS011;68546;59.142;37.948;2023-05-19T08:46:21;2.10;;;0.30;;
79139;SDS011;68546;59.142;37.948;2023-05-19T08:48:52;2.63;;;0.40;;
79139;SDS011;68546;59.142;37.948;2023-05-19T08:51:26;4.13;;;0.40;;
79139;SDS011;68546;59.142;37.948;2023-05-19T08:54:13;2.67;;;0.30;;
79139;SDS011;68546;59.142;37.948;2023-05-19T08:56:44;1.92;;;0.20;;
79139;SDS011;68546;59.142;37.948;2023-05-19T08:59:10;1.87;;;0.30;;
79139;SDS011;68546;59.142;37.948;2023-05-19T09:01:39;2.95;;;0.50;;
79139;SDS011;68546;59.142;37.948;2023-05-19T09:04:14;2.90;;;0.50;;
79139;SDS011;68546;59.142;37.948;2023-05-19T09:06:43;3.35;;;0.50;;
79139;SDS011;68546;59.142;37.948;2023-05-19T09:09:10;2.15;;;0.40;;
79139;SDS011;68546;59.142;37.948;2023-05-19T09:11:36;3.23;;;0.43;;
79139;SDS011;68546;59.142;37.948;2023-05-19T09:14:03;3.60;;;0.40;;
79139;SDS011;68546;59.142;37.948;2023-05-19T09:16:29;2.17;;;0.50;;
79139;SDS011;68546;59.142;37.948;2023-05-19T09:18:57;2.25;;;0.38;;
79139;SDS011;68546;59.142;37.948;2023-05-19T09:21:28;2.40;;;0.40;;
79139;SDS011;68546;59.142;37.948;2023-05-19T09:23:56;5.20;;;0.50;;
79139;SDS011;68546;59.142;37.948;2023-05-19T09:26:23;1.92;;;0.38;;
79139;SDS011;68546;59.142;37.948;2023-05-19T09:29:01;2.17;;;0.40;;
79139;SDS011;68546;59.142;37.948;2023-05-19T09:31:38;3.50;;;0.50;;
79139;SDS011;68546;59.142;37.948;2023-05-19T09:34:10;2.75;;;0.50;;
79139;SDS011;68546;59.142;37.948;2023-05-19T09:36:38;3.33;;;0.57;;
79139;SDS011;68546;59.142;37.948;2023-05-19T09:39:16;4.53;;;0.50;;
79139;SDS011;68546;59.142;37.948;2023-05-19T09:41:43;2.78;;;0.40;;
79139;SDS011;68546;59.142;37.948;2023-05-19T09:46:46;2.90;;;0.47;;
79139;SDS011;68546;59.142;37.948;2023-05-19T09:49:18;3.30;;;0.50;;
79139;SDS011;68546;59.142;37.948;2023-05-19T09:51:49;2.85;;;0.45;;
79139;SDS011;68546;59.142;37.948;2023-05-19T09:54:20;2.15;;;0.40;;
79139;SDS011;68546;59.142;37.948;2023-05-19T09:56:57;1.95;;;0.30;;
79139;SDS011;68546;59.142;37.948;2023-05-19T09:59:24;2.30;;;0.40;;
79139;SDS011;68546;59.142;37.948;2023-05-19T10:01:55;2.43;;;0.30;;
79139;SDS011;68546;59.142;37.948;2023-05-19T10:04:23;3.08;;;0.47;;
79139;SDS011;68546;59.142;37.948;2023-05-19T10:06:54;2.50;;;0.40;;
79139;SDS011;68546;59.142;37.948;2023-05-19T10:09:24;1.65;;;0.32;;
79139;SDS011;68546;59.142;37.948;2023-05-19T10:11:53;2.50;;;0.40;;
79139;SDS011;68546;59.142;37.948;2023-05-19T10:14:21;3.73;;;0.50;;
79139;SDS011;68546;59.142;37.948;2023-05-19T10:16:56;2.47;;;0.43;;
79139;SDS011;68546;59.142;37.948;2023-05-19T10:19:25;2.95;;;0.50;;
79139;SDS011;68546;59.142;37.948;2023-05-19T10:21:53;3.08;;;0.40;;
79139;SDS011;68546;59.142;37.948;2023-05-19T10:24:20;3.15;;;0.50;;
79139;SDS011;68546;59.142;37.948;2023-05-19T10:27:00;3.53;;;0.50;;
79139;SDS011;68546;59.142;37.948;2023-05-19T10:29:32;4.07;;;0.50;;
79139;SDS011;68546;59.142;37.948;2023-05-19T10:32:07;2.88;;;0.43;;
79139;SDS011;68546;59.142;37.948;2023-05-19T10:37:45;3.65;;;0.70;;
79139;SDS011;68546;59.142;37.948;2023-05-19T10:40:56;2.40;;;0.50;;
79139;SDS011;68546;59.142;37.948;2023-05-19T10:43:38;2.55;;;0.60;;
79139;SDS011;68546;59.142;37.948;2023-05-19T10:46:10;2.17;;;0.40;;
79139;SDS011;68546;59.142;37.948;2023-05-19T10:48:37;3.00;;;0.30;;
79139;SDS011;68546;59.142;37.948;2023-05-19T10:51:08;2.60;;;0.55;;
79139;SDS011;68546;59.142;37.948;2023-05-19T10:53:39;2.23;;;0.50;;
79139;SDS011;68546;59.142;37.948;2023-05-19T10:56:26;5.88;;;0.50;;
79139;SDS011;68546;59.142;37.948;2023-05-19T10:58:54;3.33;;;0.50;;
79139;SDS011;68546;59.142;37.948;2023-05-19T11:01:21;3.72;;;0.68;;
79139;SDS011;68546;59.142;37.948;2023-05-19T11:03:54;6.35;;;0.70;;
79139;SDS011;68546;59.142;37.948;2023-05-19T11:06:28;3.87;;;0.60;;
79139;SDS011;68546;59.142;37.948;2023-05-19T11:09:19;3.13;;;0.43;;
79139;SDS011;68546;59.142;37.948;2023-05-19T11:11:49;5.38;;;0.60;;
79139;SDS011;68546;59.142;37.948;2023-05-19T11:14:24;2.30;;;0.47;;
79139;SDS011;68546;59.142;37.948;2023-05-19T11:16:58;3.47;;;0.60;;
79139;SDS011;68546;59.142;37.948;2023-05-19T11:19:32;4.13;;;0.70;;
79139;SDS011;68546;59.142;37.948;2023-05-19T11:22:09;2.65;;;0.45;;
79139;SDS011;68546;59.142;37.948;2023-05-19T11:29:51;5.57;;;0.60;;
79139;SDS011;68546;59.142;37.948;2023-05-19T11:32:24;3.20;;;0.50;;
79139;SDS011;68546;59.142;37.948;2023-05-19T11:34:52;2.60;;;0.45;;
79139;SDS011;68546;59.142;37.948;2023-05-19T11:37:21;3.20;;;0.60;;
79139;SDS011;68546;59.142;37.948;2023-05-19T11:39:47;4.18;;;0.70;;
79139;SDS011;68546;59.142;37.948;2023-05-19T11:42:14;3.45;;;0.60;;
79139;SDS011;68546;59.142;37.948;2023-05-19T11:44:41;2.50;;;0.50;;
79139;SDS011;68546;59.142;37.948;2023-05-19T11:47:11;3.17;;;0.50;;
79139;SDS011;68546;59.142;37.948;2023-05-19T11:49:41;4.68;;;0.60;;
79139;SDS011;68546;59.142;37.948;2023-05-19T11:52:09;3.67;;;0.52;;
79139;SDS011;68546;59.142;37.948;2023-05-19T11:54:35;3.88;;;0.60;;
79139;SDS011;68546;59.142;37.948;2023-05-19T11:57:02;2.33;;;0.43;;
79139;SDS011;68546;59.142;37.948;2023-05-19T11:59:32;3.70;;;0.40;;
79139;SDS011;68546;59.142;37.948;2023-05-19T12:02:00;3.03;;;0.60;;
79139;SDS011;68546;59.142;37.948;2023-05-19T12:04:31;3.40;;;0.50;;
79139;SDS011;68546;59.142;37.948;2023-05-19T12:06:57;3.53;;;0.60;;
79139;SDS011;68546;59.142;37.948;2023-05-19T12:09:24;3.03;;;0.67;;
79139;SDS011;68546;59.142;37.948;2023-05-19T12:11:53;3.17;;;0.50;;
79139;SDS011;68546;59.142;37.948;2023-05-19T12:14:19;2.10;;;0.40;;
79139;SDS011;68546;59.142;37.948;2023-05-19T12:16:46;3.65;;;0.57;;
79139;SDS011;68546;59.142;37.948;2023-05-19T12:19:12;4.03;;;0.50;;
79139;SDS011;68546;59.142;37.948;2023-05-19T12:21:39;4.73;;;0.63;;
79139;SDS011;68546;59.142;37.948;2023-05-19T12:24:06;3.60;;;0.60;;
79139;SDS011;68546;59.142;37.948;2023-05-19T12:26:34;3.20;;;0.60;;
79139;SDS011;68546;59.142;37.948;2023-05-19T12:29:06;2.83;;;0.45;;
79139;SDS011;68546;59.142;37.948;2023-05-19T12:31:35;3.60;;;0.60;;
79139;SDS011;68546;59.142;37.948;2023-05-19T12:34:03;3.00;;;0.40;;
79139;SDS011;68546;59.142;37.948;2023-05-19T12:36:30;4.43;;;0.50;;
79139;SDS011;68546;59.142;37.948;2023-05-19T12:38:57;7.88;;;0.52;;
79139;SDS011;68546;59.142;37.948;2023-05-19T12:41:24;2.72;;;0.40;;
79139;SDS011;68546;59.142;37.948;2023-05-19T12:43:53;2.58;;;0.40;;
79139;SDS011;68546;59.142;37.948;2023-05-19T12:46:20;3.70;;;0.40;;
79139;SDS011;68546;59.142;37.948;2023-05-19T12:48:47;1.67;;;0.30;;
79139;SDS011;68546;59.142;37.948;2023-05-19T12:51:17;2.80;;;0.40;;
79139;SDS011;68546;59.142;37.948;2023-05-19T12:53:44;2.45;;;0.50;;
79139;SDS011;68546;59.142;37.948;2023-05-19T12:56:15;3.75;;;0.60;;
79139;SDS011;68546;59.142;37.948;2023-05-19T12:58:42;3.23;;;0.50;;
79139;SDS011;68546;59.142;37.948;2023-05-19T13:01:17;2.13;;;0.32;;
79139;SDS011;68546;59.142;37.948;2023-05-19T13:03:43;3.83;;;0.55;;
79139;SDS011;68546;59.142;37.948;2023-05-19T13:06:10;5.00;;;0.50;;
79139;SDS011;68546;59.142;37.948;2023-05-19T13:08:37;3.47;;;0.63;;
79139;SDS011;68546;59.142;37.948;2023-05-19T13:11:04;2.03;;;0.30;;
79139;SDS011;68546;59.142;37.948;2023-05-19T13:13:31;2.38;;;0.40;;
79139;SDS011;68546;59.142;37.948;2023-05-19T13:15:58;2.20;;;0.35;;
79139;SDS011;68546;59.142;37.948;2023-05-19T13:18:25;2.28;;;0.38;;
79139;SDS011;68546;59.142;37.948;2023-05-19T13:20:53;3.00;;;0.60;;
79139;SDS011;68546;59.142;37.948;2023-05-19T13:23:19;3.13;;;0.50;;
79139;SDS011;68546;59.142;37.948;2023-05-19T13:25:46;3.08;;;0.30;;
79139;SDS011;68546;59.142;37.948;2023-05-19T13:28:12;2.38;;;0.57;;
79139;SDS011;68546;59.142;37.948;2023-05-19T13:30:39;2.97;;;0.50;;
79139;SDS011;68546;59.142;37.948;2023-05-19T13:33:06;3.40;;;0.60;;
79139;SDS011;68546;59.142;37.948;2023-05-19T13:35:32;3.00;;;0.60;;
79139;SDS011;68546;59.142;37.948;2023-05-19T13:38:05;2.63;;;0.50;;
79139;SDS011;68546;59.142;37.948;2023-05-19T13:40:32;4.10;;;0.50;;
79139;SDS011;68546;59.142;37.948;2023-05-19T13:43:00;1.80;;;0.30;;
79139;SDS011;68546;59.142;37.948;2023-05-19T13:45:27;2.63;;;0.45;;
79139;SDS011;68546;59.142;37.948;2023-05-19T13:47:55;3.77;;;0.40;;
79139;SDS011;68546;59.142;37.948;2023-05-19T13:50:21;2.72;;;0.47;;
79139;SDS011;68546;59.142;37.948;2023-05-19T13:52:47;2.90;;;0.35;;
79139;SDS011;68546;59.142;37.948;2023-05-19T13:55:14;2.97;;;0.50;;
79139;SDS011;68546;59.142;37.948;2023-05-19T13:57:40;2.58;;;0.30;;
79139;SDS011;68546;59.142;37.948;2023-05-19T14:00:07;2.90;;;0.43;;
79139;SDS011;68546;59.142;37.948;2023-05-19T14:02:37;3.30;;;0.80;;
79139;SDS011;68546;59.142;37.948;2023-05-19T14:05:04;4.55;;;0.50;;
79139;SDS011;68546;59.142;37.948;2023-05-19T14:07:31;2.38;;;0.52;;
79139;SDS011;68546;59.142;37.948;2023-05-19T14:09:59;2.35;;;0.43;;
79139;SDS011;68546;59.142;37.948;2023-05-19T14:12:25;4.43;;;0.50;;
79139;SDS011;68546;59.142;37.948;2023-05-19T14:14:52;5.72;;;0.80;;
79139;SDS011;68546;59.142;37.948;2023-05-19T14:17:18;3.55;;;0.73;;
79139;SDS011;68546;59.142;37.948;2023-05-19T14:19:45;4.60;;;0.70;;
79139;SDS011;68546;59.142;37.948;2023-05-19T14:22:11;7.63;;;0.80;;
79139;SDS011;68546;59.142;37.948;2023-05-19T14:24:38;4.17;;;0.50;;
79139;SDS011;68546;59.142;37.948;2023-05-19T14:27:04;3.03;;;0.52;;
79139;SDS011;68546;59.142;37.948;2023-05-19T14:29:30;3.25;;;0.52;;
79139;SDS011;68546;59.142;37.948;2023-05-19T14:31:57;3.33;;;0.63;;
79139;SDS011;68546;59.142;37.948;2023-05-19T14:34:23;3.92;;;0.65;;
79139;SDS011;68546;59.142;37.948;2023-05-19T14:36:50;2.13;;;0.50;;
79139;SDS011;68546;59.142;37.948;2023-05-19T14:39:16;4.28;;;0.70;;
79139;SDS011;68546;59.142;37.948;2023-05-19T14:41:42;3.78;;;0.80;;
79139;SDS011;68546;59.142;37.948;2023-05-19T14:44:08;4.13;;;0.60;;
79139;SDS011;68546;59.142;37.948;2023-05-19T14:46:35;4.15;;;0.60;;
79139;SDS011;68546;59.142;37.948;2023-05-19T14:49:01;2.93;;;0.60;;
79139;SDS011;68546;59.142;37.948;2023-05-19T14:51:28;3.20;;;0.57;;
79139;SDS011;68546;59.142;37.948;2023-05-19T14:53:54;2.80;;;0.40;;
79139;SDS011;68546;59.142;37.948;2023-05-19T14:56:20;3.05;;;0.70;;
79139;SDS011;68546;59.142;37.948;2023-05-19T14:58:47;6.00;;;0.60;;
79139;SDS011;68546;59.142;37.948;2023-05-19T15:01:13;2.83;;;0.57;;
79139;SDS011;68546;59.142;37.948;2023-05-19T15:03:39;4.05;;;0.73;;
79139;SDS011;68546;59.142;37.948;2023-05-19T15:06:09;4.18;;;0.60;;
79139;SDS011;68546;59.142;37.948;2023-05-19T15:08:36;4.40;;;0.82;;
79139;SDS011;68546;59.142;37.948;2023-05-19T15:11:04;3.13;;;0.60;;
79139;SDS011;68546;59.142;37.948;2023-05-19T15:13:30;3.73;;;0.47;;